sensor_id;sensor_type;location;lat;lon;timestamp;temperature;humidity
12166;DHT22;6146;48.128;11.476;2022-10-31T00:01:25;10.90;99.90
12166;DHT22;6146;48.128;11.476;2022-10-31T00:03:52;10.90;99.90
12166;DHT22;6146;48.128;11.476;2022-10-31T00:06:17;10.80;99.90
12166;DHT22;6146;48.128;11.476;2022-10-31T00:08:51;10.80;99.90
12166;DHT22;6146;48.128;11.476;2022-10-31T00:11:17;10.70;99.90
12166;DHT22;6146;48.128;11.476;2022-10-31T00:13:42;10.70;99.90
12166;DHT22;6146;48.128;11.476;2022-10-31T00:16:20;10.70;99.90
12166;DHT22;6146;48.128;11.476;2022-10-31T00:18:57;10.70;99.90
12166;DHT22;6146;48.128;11.476;2022-10-31T00:21:23;10.70;99.90
12166;DHT22;6146;48.128;11.476;2022-10-31T00:23:49;10.70;99.90
12166;DHT22;6146;48.128;11.476;2022-10-31T00:26:15;10.70;99.90
12166;DHT22;6146;48.128;11.476;2022-10-31T00:28:41;10.70;99.90
12166;DHT22;6146;48.128;11.476;2022-10-31T00:31:08;10.60;99.90
12166;DHT22;6146;48.128;11.476;2022-10-31T00:33:36;10.60;99.90
12166;DHT22;6146;48.128;11.476;2022-10-31T00:36:04;10.60;99.90
12166;DHT22;6146;48.128;11.476;2022-10-31T00:38:30;10.60;99.90
12166;DHT22;6146;48.128;11.476;2022-10-31T00:40:56;10.50;99.90
12166;DHT22;6146;48.128;11.476;2022-10-31T00:43:21;10.50;99.90
12166;DHT22;6146;48.128;11.476;2022-10-31T00:45:47;10.60;99.90
12166;DHT22;6146;48.128;11.476;2022-10-31T00:48:12;10.50;99.90
12166;DHT22;6146;48.128;11.476;2022-10-31T00:50:38;10.50;99.90
12166;DHT22;6146;48.128;11.476;2022-10-31T00:53:04;10.50;99.90
12166;DHT22;6146;48.128;11.476;2022-10-31T00:55:30;10.40;99.90
12166;DHT22;6146;48.128;11.476;2022-10-31T00:57:56;10.40;99.90
12166;DHT22;6146;48.128;11.476;2022-10-31T01:00:21;10.40;99.90
12166;DHT22;6146;48.128;11.476;2022-10-31T01:02:47;10.40;99.90
12166;DHT22;6146;48.128;11.476;2022-10-31T01:05:13;10.40;99.90
12166;DHT22;6146;48.128;11.476;2022-10-31T01:07:40;10.40;99.90
12166;DHT22;6146;48.128;11.476;2022-10-31T01:10:07;10.50;99.90
12166;DHT22;6146;48.128;11.476;2022-10-31T01:12:40;10.50;99.90
12166;DHT22;6146;48.128;11.476;2022-10-31T01:15:06;10.50;99.90
12166;DHT22;6146;48.128;11.476;2022-10-31T01:17:32;10.50;99.90
12166;DHT22;6146;48.128;11.476;2022-10-31T01:19:58;10.40;99.90
12166;DHT22;6146;48.128;11.476;2022-10-31T01:22:23;10.40;99.90
12166;DHT22;6146;48.128;11.476;2022-10-31T01:24:49;10.50;99.90
12166;DHT22;6146;48.128;11.476;2022-10-31T01:27:14;10.50;99.90
12166;DHT22;6146;48.128;11.476;2022-10-31T01:29:40;10.50;99.90
12166;DHT22;6146;48.128;11.476;2022-10-31T01:32:05;10.50;99.90
12166;DHT22;6146;48.128;11.476;2022-10-31T01:34:31;10.50;99.90
12166;DHT22;6146;48.128;11.476;2022-10-31T01:36:57;10.50;99.90
12166;DHT22;6146;48.128;11.476;2022-10-31T01:39:23;10.50;99.90
12166;DHT22;6146;48.128;11.476;2022-10-31T01:41:51;10.50;99.90
12166;DHT22;6146;48.128;11.476;2022-10-31T01:49:33;10.50;99.90
12166;DHT22;6146;48.128;11.476;2022-10-31T01:52:25;10.40;99.90
12166;DHT22;6146;48.128;11.476;2022-10-31T01:55:26;10.40;99.90
12166;DHT22;6146;48.128;11.476;2022-10-31T01:57:57;10.30;99.90
12166;DHT22;6146;48.128;11.476;2022-10-31T02:00:23;10.20;99.90
12166;DHT22;6146;48.128;11.476;2022-10-31T02:02:50;10.20;99.90
12166;DHT22;6146;48.128;11.476;2022-10-31T02:05:20;10.20;99.90
12166;DHT22;6146;48.128;11.476;2022-10-31T02:08:07;10.20;99.90
12166;DHT22;6146;48.128;11.476;2022-10-31T02:10:36;10.10;99.90
12166;DHT22;6146;48.128;11.476;2022-10-31T02:13:04;10.10;99.90
12166;DHT22;6146;48.128;11.476;2022-10-31T02:15:32;10.10;99.90
12166;DHT22;6146;48.128;11.476;2022-10-31T02:17:58;10.10;99.90
12166;DHT22;6146;48.128;11.476;2022-10-31T02:20:26;10.10;99.90
12166;DHT22;6146;48.128;11.476;2022-10-31T02:26:27;10.10;99.90
12166;DHT22;6146;48.128;11.476;2022-10-31T02:31:40;10.00;99.90
12166;DHT22;6146;48.128;11.476;2022-10-31T02:34:19;10.00;99.90
12166;DHT22;6146;48.128;11.476;2022-10-31T02:39:26;9.90;99.90
12166;DHT22;6146;48.128;11.476;2022-10-31T02:45:00;9.80;99.90
12166;DHT22;6146;48.128;11.476;2022-10-31T02:47:29;9.70;99.90
12166;DHT22;6146;48.128;11.476;2022-10-31T02:50:06;9.70;99.90
12166;DHT22;6146;48.128;11.476;2022-10-31T02:52:34;9.70;99.90
12166;DHT22;6146;48.128;11.476;2022-10-31T02:55:56;9.70;99.90
12166;DHT22;6146;48.128;11.476;2022-10-31T02:58:10;9.60;99.90
12166;DHT22;6146;48.128;11.476;2022-10-31T03:00:45;9.60;99.90
12166;DHT22;6146;48.128;11.476;2022-10-31T03:06:09;9.60;99.90
12166;DHT22;6146;48.128;11.476;2022-10-31T03:08:48;9.60;99.90
12166;DHT22;6146;48.128;11.476;2022-10-31T03:11:17;9.60;99.90
12166;DHT22;6146;48.128;11.476;2022-10-31T03:16:22;9.60;99.90
12166;DHT22;6146;48.128;11.476;2022-10-31T03:19:02;9.60;99.90
12166;DHT22;6146;48.128;11.476;2022-10-31T03:21:44;9.60;99.90
12166;DHT22;6146;48.128;11.476;2022-10-31T03:24:11;9.50;99.90
12166;DHT22;6146;48.128;11.476;2022-10-31T03:26:42;9.40;99.90
12166;DHT22;6146;48.128;11.476;2022-10-31T03:29:13;9.40;99.90
12166;DHT22;6146;48.128;11.476;2022-10-31T03:31:55;9.40;99.90
12166;DHT22;6146;48.128;11.476;2022-10-31T03:34:22;9.40;99.90
12166;DHT22;6146;48.128;11.476;2022-10-31T03:36:51;9.30;99.90
12166;DHT22;6146;48.128;11.476;2022-10-31T03:39:19;9.30;99.90
12166;DHT22;6146;48.128;11.476;2022-10-31T03:41:53;9.30;99.90
12166;DHT22;6146;48.128;11.476;2022-10-31T03:44:21;9.30;99.90
12166;DHT22;6146;48.128;11.476;2022-10-31T03:46:47;9.20;99.90
12166;DHT22;6146;48.128;11.476;2022-10-31T03:49:14;9.20;99.90
12166;DHT22;6146;48.128;11.476;2022-10-31T03:51:42;9.20;99.90
12166;DHT22;6146;48.128;11.476;2022-10-31T03:57:08;9.10;99.90
12166;DHT22;6146;48.128;11.476;2022-10-31T03:59:55;9.10;99.90
12166;DHT22;6146;48.128;11.476;2022-10-31T04:02:23;9.10;99.90
12166;DHT22;6146;48.128;11.476;2022-10-31T04:04:51;9.00;99.90
12166;DHT22;6146;48.128;11.476;2022-10-31T04:07:17;9.00;99.90
12166;DHT22;6146;48.128;11.476;2022-10-31T04:09:46;9.00;99.90
12166;DHT22;6146;48.128;11.476;2022-10-31T04:12:14;9.00;99.90
12166;DHT22;6146;48.128;11.476;2022-10-31T04:14:43;9.00;99.90
12166;DHT22;6146;48.128;11.476;2022-10-31T04:17:14;9.00;99.90
12166;DHT22;6146;48.128;11.476;2022-10-31T04:19:40;9.00;99.90
12166;DHT22;6146;48.128;11.476;2022-10-31T04:22:06;9.00;99.90
12166;DHT22;6146;48.128;11.476;2022-10-31T04:24:32;9.00;99.90
12166;DHT22;6146;48.128;11.476;2022-10-31T04:26:57;8.90;99.90
12166;DHT22;6146;48.128;11.476;2022-10-31T04:29:23;8.90;99.90
12166;DHT22;6146;48.128;11.476;2022-10-31T04:31:48;8.90;99.90
12166;DHT22;6146;48.128;11.476;2022-10-31T04:34:14;8.90;99.90
12166;DHT22;6146;48.128;11.476;2022-10-31T04:36:40;8.90;99.90
12166;DHT22;6146;48.128;11.476;2022-10-31T04:39:05;8.90;99.90
12166;DHT22;6146;48.128;11.476;2022-10-31T04:41:31;8.90;99.90
12166;DHT22;6146;48.128;11.476;2022-10-31T04:43:56;8.90;99.90
12166;DHT22;6146;48.128;11.476;2022-10-31T04:46:22;9.00;99.90
12166;DHT22;6146;48.128;11.476;2022-10-31T04:48:48;9.10;99.90
12166;DHT22;6146;48.128;11.476;2022-10-31T04:51:13;9.20;99.90
12166;DHT22;6146;48.128;11.476;2022-10-31T04:53:39;9.10;99.90
12166;DHT22;6146;48.128;11.476;2022-10-31T04:56:04;9.10;99.90
12166;DHT22;6146;48.128;11.476;2022-10-31T04:58:30;9.10;99.90
12166;DHT22;6146;48.128;11.476;2022-10-31T05:00:56;9.10;99.90
12166;DHT22;6146;48.128;11.476;2022-10-31T05:03:22;9.00;99.90
12166;DHT22;6146;48.128;11.476;2022-10-31T05:05:47;9.00;99.90
12166;DHT22;6146;48.128;11.476;2022-10-31T05:08:14;8.90;99.90
12166;DHT22;6146;48.128;11.476;2022-10-31T05:10:40;8.90;99.90
12166;DHT22;6146;48.128;11.476;2022-10-31T05:13:05;8.80;99.90
12166;DHT22;6146;48.128;11.476;2022-10-31T05:15:31;8.80;99.90
12166;DHT22;6146;48.128;11.476;2022-10-31T05:17:57;8.70;99.90
12166;DHT22;6146;48.128;11.476;2022-10-31T05:20:26;8.70;99.90
12166;DHT22;6146;48.128;11.476;2022-10-31T05:22:54;8.70;99.90
12166;DHT22;6146;48.128;11.476;2022-10-31T05:25:22;8.70;99.90
12166;DHT22;6146;48.128;11.476;2022-10-31T05:27:50;8.70;99.90
12166;DHT22;6146;48.128;11.476;2022-10-31T05:30:23;8.70;99.90
12166;DHT22;6146;48.128;11.476;2022-10-31T05:32:50;8.70;99.90
12166;DHT22;6146;48.128;11.476;2022-10-31T05:35:18;8.70;99.90
12166;DHT22;6146;48.128;11.476;2022-10-31T05:37:44;8.70;99.90
12166;DHT22;6146;48.128;11.476;2022-10-31T05:40:11;8.70;99.90
12166;DHT22;6146;48.128;11.476;2022-10-31T05:42:40;8.60;99.90
12166;DHT22;6146;48.128;11.476;2022-10-31T05:45:08;8.60;99.90
12166;DHT22;6146;48.128;11.476;2022-10-31T05:47:34;8.60;99.90
12166;DHT22;6146;48.128;11.476;2022-10-31T05:49:59;8.60;99.90
12166;DHT22;6146;48.128;11.476;2022-10-31T05:52:25;8.60;99.90
12166;DHT22;6146;48.128;11.476;2022-10-31T05:54:50;8.70;99.90
12166;DHT22;6146;48.128;11.476;2022-10-31T05:57:16;8.70;99.90
12166;DHT22;6146;48.128;11.476;2022-10-31T05:59:41;8.70;99.90
12166;DHT22;6146;48.128;11.476;2022-10-31T06:02:07;8.80;99.90
12166;DHT22;6146;48.128;11.476;2022-10-31T06:04:33;8.80;99.90
12166;DHT22;6146;48.128;11.476;2022-10-31T06:06:58;8.70;99.90
12166;DHT22;6146;48.128;11.476;2022-10-31T06:09:24;8.70;99.90
12166;DHT22;6146;48.128;11.476;2022-10-31T06:11:49;8.80;99.90
12166;DHT22;6146;48.128;11.476;2022-10-31T06:14:15;8.80;99.90
12166;DHT22;6146;48.128;11.476;2022-10-31T06:16:40;8.80;99.90
12166;DHT22;6146;48.128;11.476;2022-10-31T06:19:06;8.90;99.90
12166;DHT22;6146;48.128;11.476;2022-10-31T06:21:31;8.90;99.90
12166;DHT22;6146;48.128;11.476;2022-10-31T06:23:57;8.90;99.90
12166;DHT22;6146;48.128;11.476;2022-10-31T06:26:23;8.90;99.90
12166;DHT22;6146;48.128;11.476;2022-10-31T06:28:48;9.00;99.90
12166;DHT22;6146;48.128;11.476;2022-10-31T06:31:14;9.10;99.90
12166;DHT22;6146;48.128;11.476;2022-10-31T06:33:41;9.10;99.90
12166;DHT22;6146;48.128;11.476;2022-10-31T06:36:07;9.20;99.90
12166;DHT22;6146;48.128;11.476;2022-10-31T06:38:33;9.40;99.90
12166;DHT22;6146;48.128;11.476;2022-10-31T06:41:02;9.50;99.90
12166;DHT22;6146;48.128;11.476;2022-10-31T06:43:29;9.60;99.90
12166;DHT22;6146;48.128;11.476;2022-10-31T06:45:54;9.70;99.90
12166;DHT22;6146;48.128;11.476;2022-10-31T06:48:20;9.90;99.90
12166;DHT22;6146;48.128;11.476;2022-10-31T06:50:45;10.00;99.90
12166;DHT22;6146;48.128;11.476;2022-10-31T06:53:11;10.20;99.90
12166;DHT22;6146;48.128;11.476;2022-10-31T06:55:38;10.70;99.90
12166;DHT22;6146;48.128;11.476;2022-10-31T06:58:04;11.30;99.90
12166;DHT22;6146;48.128;11.476;2022-10-31T07:00:30;11.90;99.90
12166;DHT22;6146;48.128;11.476;2022-10-31T07:02:56;13.10;99.90
12166;DHT22;6146;48.128;11.476;2022-10-31T07:05:22;14.60;99.90
12166;DHT22;6146;48.128;11.476;2022-10-31T07:07:55;16.10;99.90
12166;DHT22;6146;48.128;11.476;2022-10-31T07:10:21;17.60;99.90
12166;DHT22;6146;48.128;11.476;2022-10-31T07:12:47;18.90;99.90
12166;DHT22;6146;48.128;11.476;2022-10-31T07:15:12;20.10;99.90
12166;DHT22;6146;48.128;11.476;2022-10-31T07:17:38;20.90;99.90
12166;DHT22;6146;48.128;11.476;2022-10-31T07:20:04;22.00;99.90
12166;DHT22;6146;48.128;11.476;2022-10-31T07:22:35;23.00;99.80
12166;DHT22;6146;48.128;11.476;2022-10-31T07:25:01;23.40;94.10
12166;DHT22;6146;48.128;11.476;2022-10-31T07:27:27;23.90;92.80
12166;DHT22;6146;48.128;11.476;2022-10-31T07:29:52;24.70;90.00
12166;DHT22;6146;48.128;11.476;2022-10-31T07:32:18;25.40;86.80
12166;DHT22;6146;48.128;11.476;2022-10-31T07:34:43;26.10;83.80
12166;DHT22;6146;48.128;11.476;2022-10-31T07:37:09;26.70;79.10
12166;DHT22;6146;48.128;11.476;2022-10-31T07:39:34;27.10;73.80
12166;DHT22;6146;48.128;11.476;2022-10-31T07:42:00;27.10;69.90
12166;DHT22;6146;48.128;11.476;2022-10-31T07:44:25;27.00;69.90
12166;DHT22;6146;48.128;11.476;2022-10-31T07:46:51;27.40;68.80
12166;DHT22;6146;48.128;11.476;2022-10-31T07:49:17;27.30;66.80
12166;DHT22;6146;48.128;11.476;2022-10-31T07:51:42;28.00;66.90
12166;DHT22;6146;48.128;11.476;2022-10-31T07:54:08;28.40;63.20
12166;DHT22;6146;48.128;11.476;2022-10-31T07:56:33;28.50;64.80
12166;DHT22;6146;48.128;11.476;2022-10-31T07:58:59;29.10;62.60
12166;DHT22;6146;48.128;11.476;2022-10-31T08:01:24;29.60;59.80
12166;DHT22;6146;48.128;11.476;2022-10-31T08:03:50;29.90;58.60
12166;DHT22;6146;48.128;11.476;2022-10-31T08:06:15;30.30;57.80
12166;DHT22;6146;48.128;11.476;2022-10-31T08:08:41;30.20;55.50
12166;DHT22;6146;48.128;11.476;2022-10-31T08:11:06;29.90;55.40
12166;DHT22;6146;48.128;11.476;2022-10-31T08:13:32;29.90;55.40
12166;DHT22;6146;48.128;11.476;2022-10-31T08:15:58;29.30;56.60
12166;DHT22;6146;48.128;11.476;2022-10-31T08:18:28;29.20;57.20
12166;DHT22;6146;48.128;11.476;2022-10-31T08:20:54;29.00;56.60
12166;DHT22;6146;48.128;11.476;2022-10-31T08:23:20;29.00;57.00
12166;DHT22;6146;48.128;11.476;2022-10-31T08:25:46;29.50;56.50
12166;DHT22;6146;48.128;11.476;2022-10-31T08:28:13;28.50;56.90
12166;DHT22;6146;48.128;11.476;2022-10-31T08:30:40;28.80;57.60
12166;DHT22;6146;48.128;11.476;2022-10-31T08:33:15;29.50;56.40
12166;DHT22;6146;48.128;11.476;2022-10-31T08:35:42;30.50;54.50
12166;DHT22;6146;48.128;11.476;2022-10-31T08:38:10;31.30;54.30
12166;DHT22;6146;48.128;11.476;2022-10-31T08:40:36;31.40;52.90
12166;DHT22;6146;48.128;11.476;2022-10-31T08:43:11;31.70;51.40
12166;DHT22;6146;48.128;11.476;2022-10-31T08:45:37;31.20;52.80
12166;DHT22;6146;48.128;11.476;2022-10-31T08:48:06;30.70;52.50
12166;DHT22;6146;48.128;11.476;2022-10-31T08:50:34;29.40;55.00
12166;DHT22;6146;48.128;11.476;2022-10-31T08:53:04;27.80;58.80
12166;DHT22;6146;48.128;11.476;2022-10-31T08:55:30;27.80;59.10
12166;DHT22;6146;48.128;11.476;2022-10-31T08:57:57;27.70;59.60
12166;DHT22;6146;48.128;11.476;2022-10-31T09:00:23;27.50;61.00
12166;DHT22;6146;48.128;11.476;2022-10-31T09:02:55;27.60;60.30
12166;DHT22;6146;48.128;11.476;2022-10-31T09:05:21;27.10;61.70
12166;DHT22;6146;48.128;11.476;2022-10-31T09:07:46;26.30;65.20
12166;DHT22;6146;48.128;11.476;2022-10-31T09:10:12;27.00;63.10
12166;DHT22;6146;48.128;11.476;2022-10-31T09:12:37;27.10;64.30
12166;DHT22;6146;48.128;11.476;2022-10-31T09:15:03;27.60;62.60
12166;DHT22;6146;48.128;11.476;2022-10-31T09:17:31;28.40;59.60
12166;DHT22;6146;48.128;11.476;2022-10-31T09:19:57;28.80;59.70
12166;DHT22;6146;48.128;11.476;2022-10-31T09:22:22;29.70;57.10
12166;DHT22;6146;48.128;11.476;2022-10-31T09:24:48;29.50;56.80
12166;DHT22;6146;48.128;11.476;2022-10-31T09:27:14;28.00;59.00
12166;DHT22;6146;48.128;11.476;2022-10-31T09:29:40;27.80;60.20
12166;DHT22;6146;48.128;11.476;2022-10-31T09:32:05;28.50;59.60
12166;DHT22;6146;48.128;11.476;2022-10-31T09:34:31;29.80;57.10
12166;DHT22;6146;48.128;11.476;2022-10-31T09:36:56;30.30;54.70
12166;DHT22;6146;48.128;11.476;2022-10-31T09:39:22;29.10;56.50
12166;DHT22;6146;48.128;11.476;2022-10-31T09:52:39;26.10;65.30
12166;DHT22;6146;48.128;11.476;2022-10-31T09:55:17;25.60;64.90
12166;DHT22;6146;48.128;11.476;2022-10-31T09:57:44;25.60;67.30
12166;DHT22;6146;48.128;11.476;2022-10-31T10:00:16;25.80;66.20
12166;DHT22;6146;48.128;11.476;2022-10-31T10:05:17;26.80;62.50
12166;DHT22;6146;48.128;11.476;2022-10-31T10:17:11;28.30;57.10
12166;DHT22;6146;48.128;11.476;2022-10-31T10:23:22;29.00;58.80
12166;DHT22;6146;48.128;11.476;2022-10-31T10:25:56;28.90;56.20
12166;DHT22;6146;48.128;11.476;2022-10-31T10:28:36;28.50;56.10
12166;DHT22;6146;48.128;11.476;2022-10-31T10:31:10;27.50;57.60
12166;DHT22;6146;48.128;11.476;2022-10-31T10:33:43;26.20;59.80
12166;DHT22;6146;48.128;11.476;2022-10-31T10:36:21;26.20;59.10
12166;DHT22;6146;48.128;11.476;2022-10-31T10:39:02;25.50;59.90
12166;DHT22;6146;48.128;11.476;2022-10-31T10:41:31;25.10;61.80
12166;DHT22;6146;48.128;11.476;2022-10-31T10:43:57;24.80;64.00
12166;DHT22;6146;48.128;11.476;2022-10-31T10:46:29;24.90;62.50
12166;DHT22;6146;48.128;11.476;2022-10-31T10:49:34;24.60;62.30
12166;DHT22;6146;48.128;11.476;2022-10-31T10:54:59;24.00;65.70
12166;DHT22;6146;48.128;11.476;2022-10-31T11:00:31;23.70;67.50
12166;DHT22;6146;48.128;11.476;2022-10-31T11:02:57;23.20;69.70
12166;DHT22;6146;48.128;11.476;2022-10-31T11:05:35;23.10;71.20
12166;DHT22;6146;48.128;11.476;2022-10-31T11:08:03;23.60;70.40
12166;DHT22;6146;48.128;11.476;2022-10-31T11:10:29;23.60;69.80
12166;DHT22;6146;48.128;11.476;2022-10-31T11:15:55;23.70;69.70
12166;DHT22;6146;48.128;11.476;2022-10-31T11:18:24;24.30;67.10
12166;DHT22;6146;48.128;11.476;2022-10-31T11:20:56;24.40;66.80
12166;DHT22;6146;48.128;11.476;2022-10-31T11:23:24;25.10;67.80
12166;DHT22;6146;48.128;11.476;2022-10-31T11:26:03;25.40;63.90
12166;DHT22;6146;48.128;11.476;2022-10-31T11:28:30;25.50;64.30
12166;DHT22;6146;48.128;11.476;2022-10-31T11:31:15;25.70;64.40
12166;DHT22;6146;48.128;11.476;2022-10-31T11:36:22;25.20;65.70
12166;DHT22;6146;48.128;11.476;2022-10-31T11:38:48;25.90;61.80
12166;DHT22;6146;48.128;11.476;2022-10-31T11:41:17;25.60;61.80
12166;DHT22;6146;48.128;11.476;2022-10-31T11:43:55;24.80;62.30
12166;DHT22;6146;48.128;11.476;2022-10-31T11:46:38;24.60;63.90
12166;DHT22;6146;48.128;11.476;2022-10-31T11:49:15;25.10;62.50
12166;DHT22;6146;48.128;11.476;2022-10-31T11:51:41;25.50;60.50
12166;DHT22;6146;48.128;11.476;2022-10-31T11:54:23;25.70;59.40
12166;DHT22;6146;48.128;11.476;2022-10-31T11:56:49;24.80;61.30
12166;DHT22;6146;48.128;11.476;2022-10-31T11:59:27;24.50;62.60
12166;DHT22;6146;48.128;11.476;2022-10-31T12:01:55;23.90;64.50
12166;DHT22;6146;48.128;11.476;2022-10-31T12:04:43;23.30;66.30
12166;DHT22;6146;48.128;11.476;2022-10-31T12:07:10;23.10;67.80
12166;DHT22;6146;48.128;11.476;2022-10-31T12:09:36;22.90;67.20
12166;DHT22;6146;48.128;11.476;2022-10-31T12:12:25;22.60;70.00
12166;DHT22;6146;48.128;11.476;2022-10-31T12:17:34;22.00;71.10
12166;DHT22;6146;48.128;11.476;2022-10-31T12:20:05;22.10;70.50
12166;DHT22;6146;48.128;11.476;2022-10-31T12:23:03;22.20;71.10
12166;DHT22;6146;48.128;11.476;2022-10-31T12:25:50;22.00;71.20
12166;DHT22;6146;48.128;11.476;2022-10-31T12:36:53;22.10;70.80
12166;DHT22;6146;48.128;11.476;2022-10-31T12:40:04;22.00;70.50
12166;DHT22;6146;48.128;11.476;2022-10-31T12:48:19;21.70;72.90
12166;DHT22;6146;48.128;11.476;2022-10-31T12:51:08;21.60;73.70
12166;DHT22;6146;48.128;11.476;2022-10-31T12:59:21;21.60;73.20
12166;DHT22;6146;48.128;11.476;2022-10-31T13:02:00;22.20;72.90
12166;DHT22;6146;48.128;11.476;2022-10-31T13:04:36;24.00;65.80
12166;DHT22;6146;48.128;11.476;2022-10-31T13:07:08;24.70;63.80
12166;DHT22;6146;48.128;11.476;2022-10-31T13:09:48;23.80;66.00
12166;DHT22;6146;48.128;11.476;2022-10-31T13:12:17;22.80;69.30
12166;DHT22;6146;48.128;11.476;2022-10-31T13:14:53;22.80;71.00
12166;DHT22;6146;48.128;11.476;2022-10-31T13:17:41;22.80;70.40
12166;DHT22;6146;48.128;11.476;2022-10-31T13:23:20;22.60;72.30
12166;DHT22;6146;48.128;11.476;2022-10-31T13:25:54;22.50;73.10
12166;DHT22;6146;48.128;11.476;2022-10-31T13:28:24;22.50;73.80
12166;DHT22;6146;48.128;11.476;2022-10-31T13:30:52;22.10;75.30
12166;DHT22;6146;48.128;11.476;2022-10-31T13:33:22;21.70;77.40
12166;DHT22;6146;48.128;11.476;2022-10-31T13:36:15;21.70;79.00
12166;DHT22;6146;48.128;11.476;2022-10-31T13:44:13;21.20;80.00
12166;DHT22;6146;48.128;11.476;2022-10-31T13:46:42;21.10;81.20
12166;DHT22;6146;48.128;11.476;2022-10-31T13:52:12;21.10;81.90
12166;DHT22;6146;48.128;11.476;2022-10-31T13:54:44;21.10;82.40
12166;DHT22;6146;48.128;11.476;2022-10-31T13:57:30;21.00;82.80
12166;DHT22;6146;48.128;11.476;2022-10-31T14:00:07;20.90;83.50
12166;DHT22;6146;48.128;11.476;2022-10-31T14:02:49;21.00;84.30
12166;DHT22;6146;48.128;11.476;2022-10-31T14:05:32;21.10;86.40
12166;DHT22;6146;48.128;11.476;2022-10-31T14:08:01;21.30;84.20
12166;DHT22;6146;48.128;11.476;2022-10-31T14:10:29;21.30;84.00
12166;DHT22;6146;48.128;11.476;2022-10-31T14:13:20;21.40;84.40
12166;DHT22;6146;48.128;11.476;2022-10-31T14:16:04;21.70;83.60
12166;DHT22;6146;48.128;11.476;2022-10-31T14:18:35;21.90;82.30
12166;DHT22;6146;48.128;11.476;2022-10-31T14:23:51;21.50;83.70
12166;DHT22;6146;48.128;11.476;2022-10-31T14:26:31;21.40;84.50
12166;DHT22;6146;48.128;11.476;2022-10-31T14:31:52;21.00;87.30
12166;DHT22;6146;48.128;11.476;2022-10-31T14:34:40;20.80;87.10
12166;DHT22;6146;48.128;11.476;2022-10-31T14:37:25;20.60;88.40
12166;DHT22;6146;48.128;11.476;2022-10-31T14:42:56;20.10;90.50
12166;DHT22;6146;48.128;11.476;2022-10-31T14:51:01;20.30;91.00
12166;DHT22;6146;48.128;11.476;2022-10-31T14:53:43;20.40;90.80
12166;DHT22;6146;48.128;11.476;2022-10-31T14:56:11;20.40;91.00
12166;DHT22;6146;48.128;11.476;2022-10-31T14:58:44;20.30;91.30
12166;DHT22;6146;48.128;11.476;2022-10-31T15:01:26;20.30;91.80
12166;DHT22;6146;48.128;11.476;2022-10-31T15:04:00;20.30;92.50
12166;DHT22;6146;48.128;11.476;2022-10-31T15:06:31;20.10;92.30
12166;DHT22;6146;48.128;11.476;2022-10-31T15:09:00;20.10;92.80
12166;DHT22;6146;48.128;11.476;2022-10-31T15:11:27;20.00;93.00
12166;DHT22;6146;48.128;11.476;2022-10-31T15:13:57;19.90;93.40
12166;DHT22;6146;48.128;11.476;2022-10-31T15:16:25;19.90;93.60
12166;DHT22;6146;48.128;11.476;2022-10-31T15:21:20;19.80;94.30
12166;DHT22;6146;48.128;11.476;2022-10-31T15:23:46;19.80;94.60
12166;DHT22;6146;48.128;11.476;2022-10-31T15:26:20;19.70;94.80
12166;DHT22;6146;48.128;11.476;2022-10-31T15:28:56;19.70;95.10
12166;DHT22;6146;48.128;11.476;2022-10-31T15:31:23;19.60;95.60
12166;DHT22;6146;48.128;11.476;2022-10-31T15:33:49;19.40;95.90
12166;DHT22;6146;48.128;11.476;2022-10-31T15:36:21;19.40;96.40
12166;DHT22;6146;48.128;11.476;2022-10-31T15:38:47;19.30;97.00
12166;DHT22;6146;48.128;11.476;2022-10-31T15:41:45;19.30;97.40
12166;DHT22;6146;48.128;11.476;2022-10-31T15:44:16;19.20;98.40
12166;DHT22;6146;48.128;11.476;2022-10-31T15:46:55;19.00;99.30
12166;DHT22;6146;48.128;11.476;2022-10-31T15:49:46;18.90;99.90
12166;DHT22;6146;48.128;11.476;2022-10-31T15:55:02;18.70;99.90
12166;DHT22;6146;48.128;11.476;2022-10-31T15:57:29;18.50;99.90
12166;DHT22;6146;48.128;11.476;2022-10-31T15:59:56;18.40;99.90
12166;DHT22;6146;48.128;11.476;2022-10-31T16:02:24;18.30;99.90
12166;DHT22;6146;48.128;11.476;2022-10-31T16:04:54;18.10;99.90
12166;DHT22;6146;48.128;11.476;2022-10-31T16:07:21;18.00;99.90
12166;DHT22;6146;48.128;11.476;2022-10-31T16:12:20;17.80;99.90
12166;DHT22;6146;48.128;11.476;2022-10-31T16:14:46;17.60;99.90
12166;DHT22;6146;48.128;11.476;2022-10-31T16:17:17;17.50;99.90
12166;DHT22;6146;48.128;11.476;2022-10-31T16:20:00;17.40;99.90
12166;DHT22;6146;48.128;11.476;2022-10-31T16:22:27;17.30;99.90
12166;DHT22;6146;48.128;11.476;2022-10-31T16:25:12;17.20;99.90
12166;DHT22;6146;48.128;11.476;2022-10-31T16:27:40;17.00;99.90
12166;DHT22;6146;48.128;11.476;2022-10-31T16:30:36;16.90;99.90
12166;DHT22;6146;48.128;11.476;2022-10-31T16:33:03;16.70;99.90
12166;DHT22;6146;48.128;11.476;2022-10-31T16:35:34;16.60;99.90
12166;DHT22;6146;48.128;11.476;2022-10-31T16:38:00;16.40;99.90
12166;DHT22;6146;48.128;11.476;2022-10-31T16:40:26;16.30;99.90
12166;DHT22;6146;48.128;11.476;2022-10-31T16:42:52;16.20;99.90
12166;DHT22;6146;48.128;11.476;2022-10-31T16:45:20;16.10;99.90
12166;DHT22;6146;48.128;11.476;2022-10-31T16:47:47;15.90;99.90
12166;DHT22;6146;48.128;11.476;2022-10-31T16:50:20;15.80;99.90
12166;DHT22;6146;48.128;11.476;2022-10-31T16:52:46;15.70;99.90
12166;DHT22;6146;48.128;11.476;2022-10-31T16:55:17;15.60;99.90
12166;DHT22;6146;48.128;11.476;2022-10-31T16:57:48;15.50;99.90
12166;DHT22;6146;48.128;11.476;2022-10-31T17:00:20;15.30;99.90
12166;DHT22;6146;48.128;11.476;2022-10-31T17:02:47;15.20;99.90
12166;DHT22;6146;48.128;11.476;2022-10-31T17:05:15;15.10;99.90
12166;DHT22;6146;48.128;11.476;2022-10-31T17:07:41;15.00;99.90
12166;DHT22;6146;48.128;11.476;2022-10-31T17:10:08;14.90;99.90
12166;DHT22;6146;48.128;11.476;2022-10-31T17:12:34;14.80;99.90
12166;DHT22;6146;48.128;11.476;2022-10-31T17:15:00;14.70;99.90
12166;DHT22;6146;48.128;11.476;2022-10-31T17:17:26;14.60;99.90
12166;DHT22;6146;48.128;11.476;2022-10-31T17:19:51;14.60;99.90
12166;DHT22;6146;48.128;11.476;2022-10-31T17:22:17;14.50;99.90
12166;DHT22;6146;48.128;11.476;2022-10-31T17:24:42;14.40;99.90
12166;DHT22;6146;48.128;11.476;2022-10-31T17:27:08;14.40;99.90
12166;DHT22;6146;48.128;11.476;2022-10-31T17:29:34;14.20;99.90
12166;DHT22;6146;48.128;11.476;2022-10-31T17:32:00;14.10;99.90
12166;DHT22;6146;48.128;11.476;2022-10-31T17:34:27;14.10;99.90
12166;DHT22;6146;48.128;11.476;2022-10-31T17:36:53;14.00;99.90
12166;DHT22;6146;48.128;11.476;2022-10-31T17:39:18;13.90;99.90
12166;DHT22;6146;48.128;11.476;2022-10-31T17:41:45;13.80;99.90
12166;DHT22;6146;48.128;11.476;2022-10-31T17:44:11;13.80;99.90
12166;DHT22;6146;48.128;11.476;2022-10-31T17:46:37;13.70;99.90
12166;DHT22;6146;48.128;11.476;2022-10-31T17:49:03;13.60;99.90
12166;DHT22;6146;48.128;11.476;2022-10-31T17:51:33;13.60;99.90